createdAt,value
2022-10-15T00:02:03.796Z,29.3657
2022-10-15T00:17:05.731Z,29.1447
2022-10-15T00:32:07.615Z,29.3558
2022-10-15T00:47:09.512Z,29.8399
2022-10-15T01:02:11.424Z,29.6486
2022-10-15T01:17:13.308Z,29.4536
2022-10-15T01:32:15.222Z,29.7879
2022-10-15T01:47:17.162Z,29.0927
2022-10-15T02:02:19.080Z,28.7578
2022-10-15T02:17:20.970Z,28.8228
2022-10-15T02:32:23.232Z,26.957
2022-10-15T02:47:26.126Z,27.6689
2022-10-15T03:02:28.025Z,27.1848
2022-10-15T03:17:29.974Z,26.463
2022-10-15T03:32:33.129Z,26.606
2022-10-15T03:47:37.514Z,25.7418
2022-10-15T04:02:39.444Z,27.282
2022-10-15T04:17:41.513Z,27.2331
2022-10-15T04:32:43.445Z,25.9981
2022-10-15T04:47:45.371Z,26.3658
2022-10-15T05:01:40.698Z,25.9089
2022-10-15T05:16:42.543Z,26.5577
2022-10-15T05:22:41.277Z,25.8792
2022-10-15T05:37:43.186Z,28.2638
2022-10-15T05:52:45.108Z,26.7948
2022-10-15T06:07:47.059Z,27.9555
2022-10-15T06:22:48.971Z,28.8327
2022-10-15T06:37:50.902Z,26.9347
2022-10-15T06:52:52.901Z,27.3482
2022-10-15T07:07:57.056Z,25.6638
2022-10-15T07:22:58.928Z,26.8239
2022-10-15T07:38:00.783Z,27.529
2022-10-15T07:53:02.616Z,25.7839
2022-10-15T08:08:04.440Z,27.5649
2022-10-15T08:23:06.241Z,27.6169
2022-10-15T08:38:08.066Z,27.2789
2022-10-15T08:53:09.929Z,26.775
2022-10-15T09:08:11.789Z,26.5212
2022-10-15T09:23:13.631Z,25.2082
2022-10-15T09:38:15.489Z,24.5842
2022-10-15T09:53:17.323Z,24.3143
2022-10-15T10:08:19.142Z,23.6154
2022-10-15T10:23:20.993Z,23.3975
2022-10-15T10:38:22.847Z,22.8645
2022-10-15T10:53:24.684Z,22.6726
2022-10-15T11:08:26.513Z,22.5457
2022-10-15T11:23:28.360Z,22.4708
2022-10-15T11:38:30.235Z,22.516
2022-10-15T11:53:32.064Z,21.6487
2022-10-15T12:08:33.914Z,21.8858
2022-10-15T12:23:35.745Z,21.3299
2022-10-15T12:38:37.571Z,21.164
2022-10-15T12:53:39.424Z,20.566
2022-10-15T13:08:41.304Z,19.5557
2022-10-15T13:23:43.195Z,19.1651
2022-10-15T13:38:47.322Z,20.1333
2022-10-15T13:53:49.241Z,19.5062
2022-10-15T14:08:51.095Z,19.1942
2022-10-15T14:23:52.925Z,19.4833
2022-10-15T14:38:54.739Z,20.0912
2022-10-15T14:53:56.583Z,19.3273
2022-10-15T15:08:58.450Z,18.5863
2022-10-15T15:24:00.307Z,18.5863
2022-10-15T15:39:02.148Z,18.5046
2022-10-15T15:54:03.981Z,19.0933
2022-10-15T16:09:05.811Z,18.6643
2022-10-15T16:24:07.666Z,18.8463
2022-10-15T16:39:09.536Z,18.7615
2022-10-15T16:54:11.370Z,19.7173
2022-10-15T17:09:13.197Z,19.1063
2022-10-15T17:24:15.050Z,20.0943
2022-10-15T17:39:16.887Z,20.1593
2022-10-15T17:54:18.741Z,20.1432
2022-10-15T18:09:20.607Z,21.1213
2022-10-15T18:24:22.432Z,20.7963
2022-10-15T18:39:24.264Z,20.2113
2022-10-15T18:54:26.126Z,20.8322
2022-10-15T19:09:27.994Z,21.5342
2022-10-15T19:24:29.825Z,22.6008
2022-10-15T19:39:31.670Z,24.076
2022-10-15T19:54:33.500Z,24.271
2022-10-15T20:09:35.338Z,24.583
2022-10-15T20:24:37.193Z,25.2918
2022-10-15T20:39:38.979Z,26.0328
2022-10-15T20:54:40.785Z,26.0984
2022-10-15T21:09:42.653Z,26.8004
2022-10-15T21:24:44.507Z,26.2903
2022-10-15T21:39:46.330Z,27.7884
2022-10-15T21:54:48.167Z,27.8311
2022-10-15T22:09:50.033Z,28.1301
2022-10-15T22:24:51.874Z,27.776
2022-10-15T22:39:53.695Z,28.7869
2022-10-15T22:54:55.535Z,29.4827
2022-10-15T23:09:57.394Z,29.3855
2022-10-15T23:24:59.232Z,29.7718
2022-10-15T23:40:01.080Z,30.0677
2022-10-15T23:55:02.890Z,29.6226
